Time;durP1;ratioP1;P1;durP2;ratioP2;P2;SDS_P1;SDS_P2;PMS_P1;PMS_P2;Temp;Humidity;BMP_temperature;BMP_pressure;BME280_temperature;BME280_humidity;BME280_pressure;Samples;Min_cycle;Max_cycle;Signal;HPM_P1;HPM_P2
2022/01/17 00:00:23;;;;;;;62.42;30.75;;;2.90;88.80;;;;;;5057331;28;20233;-76
2022/01/17 00:02:52;;;;;;;58.75;31.55;;;2.90;89.10;;;;;;5056960;28;20321;-75
2022/01/17 00:05:19;;;;;;;55.10;29.75;;;2.90;90.00;;;;;;5057553;28;20206;-75
2022/01/17 00:07:46;;;;;;;56.97;31.00;;;2.90;90.40;;;;;;5058982;28;20213;-76
2022/01/17 00:10:15;;;;;;;51.97;28.80;;;2.90;90.50;;;;;;5057544;28;20246;-75
2022/01/17 00:12:46;;;;;;;56.35;29.50;;;2.90;90.40;;;;;;5056959;28;20691;-74
2022/01/17 00:15:20;;;;;;;56.95;28.85;;;2.90;90.10;;;;;;5056358;28;20677;-76
2022/01/17 00:17:51;;;;;;;49.70;26.90;;;2.90;89.90;;;;;;5055331;28;20274;-76
2022/01/17 00:20:25;;;;;;;44.70;26.63;;;2.90;88.90;;;;;;5035915;28;20702;-75
2022/01/17 00:22:52;;;;;;;49.47;26.15;;;2.80;87.90;;;;;;5039864;28;20254;-75
2022/01/17 00:25:19;;;;;;;51.95;24.95;;;2.80;87.80;;;;;;5055932;28;20606;-76
2022/01/17 00:27:47;;;;;;;46.05;24.30;;;2.80;87.80;;;;;;5054924;28;20202;-75
2022/01/17 00:30:16;;;;;;;50.08;25.85;;;2.80;87.70;;;;;;5055616;28;20323;-75
2022/01/17 00:32:42;;;;;;;47.67;24.52;;;2.80;87.80;;;;;;5056065;28;20203;-75
2022/01/17 00:35:10;;;;;;;41.45;22.08;;;2.80;87.80;;;;;;5055472;28;20221;-75
2022/01/17 00:37:37;;;;;;;46.88;25.20;;;2.80;87.90;;;;;;5058388;28;20638;-75
2022/01/17 00:40:04;;;;;;;48.10;25.95;;;2.80;88.10;;;;;;5054527;28;20241;-76
2022/01/17 00:42:31;;;;;;;46.25;24.48;;;2.80;87.80;;;;;;5055261;28;20230;-75
2022/01/17 00:45:01;;;;;;;44.85;21.73;;;2.80;87.70;;;;;;5055752;28;20281;-74
2022/01/17 00:47:29;;;;;;;47.65;23.83;;;2.80;87.80;;;;;;5055239;28;20241;-75
2022/01/17 00:49:56;;;;;;;48.10;25.33;;;2.80;87.70;;;;;;5055767;28;20227;-76
2022/01/17 00:52:23;;;;;;;41.47;22.13;;;2.70;87.10;;;;;;5055119;28;20233;-77
2022/01/17 00:54:49;;;;;;;43.22;21.95;;;2.70;87.60;;;;;;5065948;28;20245;-76
2022/01/17 00:57:17;;;;;;;43.25;22.85;;;2.80;87.70;;;;;;5061300;28;20206;-76
2022/01/17 00:59:44;;;;;;;39.03;22.23;;;2.80;87.70;;;;;;5066030;28;20222;-76
2022/01/17 01:02:10;;;;;;;45.33;22.08;;;2.80;87.70;;;;;;5061120;28;20309;-75
2022/01/17 01:04:39;;;;;;;38.55;21.20;;;2.80;87.60;;;;;;5053694;28;20210;-76
2022/01/17 01:07:05;;;;;;;45.00;20.60;;;2.70;86.90;;;;;;5053276;28;20290;-76
2022/01/17 01:09:40;;;;;;;41.72;20.45;;;2.70;86.70;;;;;;5053623;28;20234;-74
2022/01/17 01:12:07;;;;;;;37.55;20.58;;;2.70;86.50;;;;;;5053040;28;20213;-75
2022/01/17 01:14:34;;;;;;;39.15;21.73;;;2.70;86.70;;;;;;5053545;28;20306;-75
2022/01/17 01:17:07;;;;;;;45.55;22.90;;;2.70;86.60;;;;;;5053384;28;20209;-75
2022/01/17 01:19:41;;;;;;;49.53;23.98;;;2.70;87.60;;;;;;5053359;28;20230;-74
2022/01/17 01:27:46;;;;;;;42.97;23.55;;;2.70;88.20;;;;;;5053226;28;20205;-75
2022/01/17 01:30:16;;;;;;;51.38;25.83;;;2.70;89.50;;;;;;5052926;28;20330;-75
2022/01/17 01:32:47;;;;;;;55.10;28.27;;;2.70;89.60;;;;;;5052949;28;20615;-76
2022/01/17 01:35:17;;;;;;;47.47;26.42;;;2.70;90.00;;;;;;5052451;28;20214;-76
2022/01/17 01:37:47;;;;;;;52.55;26.65;;;2.70;89.90;;;;;;5052765;28;20218;-76
2022/01/17 01:40:16;;;;;;;44.35;24.20;;;2.60;90.00;;;;;;5053814;28;20691;-76
2022/01/17 01:42:43;;;;;;;38.60;22.55;;;2.70;90.00;;;;;;5055893;28;20291;-76
2022/01/17 01:45:14;;;;;;;43.10;23.48;;;2.70;89.70;;;;;;5052908;28;20263;-76
2022/01/17 01:47:42;;;;;;;42.53;22.60;;;2.70;88.90;;;;;;5052820;28;20201;-76
2022/01/17 01:50:11;;;;;;;45.45;23.50;;;2.70;87.70;;;;;;5052564;28;20278;-77
2022/01/17 01:52:41;;;;;;;41.42;24.00;;;2.70;87.20;;;;;;5052114;28;20202;-75
2022/01/17 01:55:14;;;;;;;50.05;23.05;;;2.70;87.00;;;;;;5053279;28;20210;-76
2022/01/17 01:57:42;;;;;;;37.20;23.13;;;2.70;86.40;;;;;;5053403;28;20548;-77
2022/01/17 02:00:11;;;;;;;44.10;22.63;;;2.70;85.70;;;;;;5053659;28;20592;-76
2022/01/17 02:02:37;;;;;;;47.35;22.90;;;2.70;85.10;;;;;;5052412;28;20248;-76
2022/01/17 02:05:06;;;;;;;47.22;23.02;;;2.70;84.80;;;;;;5052849;28;20558;-74
2022/01/17 02:07:33;;;;;;;42.83;23.02;;;2.60;84.80;;;;;;5056390;28;20206;-76
2022/01/17 02:10:00;;;;;;;41.78;20.90;;;2.70;83.80;;;;;;5056342;28;20281;-76
2022/01/17 02:12:29;;;;;;;39.67;20.80;;;2.70;83.60;;;;;;5053591;28;20285;-75
2022/01/17 02:14:56;;;;;;;35.00;21.48;;;2.70;83.60;;;;;;5055070;28;20211;-75
2022/01/17 02:17:24;;;;;;;40.30;19.77;;;2.70;83.60;;;;;;5059111;28;20209;-75
2022/01/17 02:19:56;;;;;;;37.50;19.85;;;2.70;83.60;;;;;;5057548;28;20604;-75
2022/01/17 02:22:24;;;;;;;37.95;21.42;;;2.70;83.60;;;;;;5056563;28;20269;-75
2022/01/17 02:24:51;;;;;;;37.00;20.38;;;2.70;82.70;;;;;;5056273;28;20206;-75
2022/01/17 02:27:17;;;;;;;31.08;19.00;;;2.70;82.00;;;;;;5058296;28;20275;-75
2022/01/17 02:29:44;;;;;;;33.83;19.90;;;2.70;81.70;;;;;;5056611;28;20233;-75
2022/01/17 02:32:11;;;;;;;36.72;19.52;;;2.80;81.70;;;;;;5052917;28;20261;-75
2022/01/17 02:34:42;;;;;;;40.35;19.77;;;2.80;81.40;;;;;;5053107;28;20209;-75
2022/01/17 02:37:11;;;;;;;37.15;21.92;;;2.80;81.60;;;;;;5052056;28;20272;-75
2022/01/17 02:39:39;;;;;;;37.40;20.17;;;2.80;81.70;;;;;;5052220;28;20265;-75
2022/01/17 02:42:06;;;;;;;32.78;18.67;;;2.80;81.90;;;;;;5051700;28;20222;-75
2022/01/17 02:44:33;;;;;;;32.97;20.17;;;2.80;81.50;;;;;;5052427;28;20210;-75
2022/01/17 02:47:02;;;;;;;41.50;21.58;;;2.90;81.60;;;;;;5051836;28;20229;-76
2022/01/17 02:49:29;;;;;;;37.45;20.52;;;2.90;81.20;;;;;;5051843;28;20693;-76
2022/01/17 02:51:56;;;;;;;32.17;19.88;;;2.80;81.10;;;;;;5051614;28;20206;-76
2022/01/17 02:54:24;;;;;;;34.28;19.25;;;2.80;81.10;;;;;;5051980;28;20314;-74
2022/01/17 02:56:51;;;;;;;31.73;18.48;;;2.80;81.50;;;;;;5051574;28;20285;-74
2022/01/17 02:59:18;;;;;;;31.60;19.00;;;2.80;81.50;;;;;;5052068;28;20210;-75
2022/01/17 03:01:45;;;;;;;34.10;18.75;;;2.80;81.50;;;;;;5052131;28;20206;-74
2022/01/17 03:04:11;;;;;;;32.15;17.20;;;2.80;81.20;;;;;;5051911;28;20695;-74
2022/01/17 03:06:38;;;;;;;31.88;18.55;;;2.80;81.10;;;;;;5051309;28;20202;-75
2022/01/17 03:09:05;;;;;;;33.60;18.30;;;2.80;81.50;;;;;;5052869;28;20550;-74
2022/01/17 03:11:33;;;;;;;33.13;17.00;;;2.70;81.90;;;;;;5053087;28;20325;-76
2022/01/17 03:14:00;;;;;;;33.88;18.77;;;2.70;82.40;;;;;;5056431;28;20214;-75
2022/01/17 03:16:33;;;;;;;34.22;18.95;;;2.70;82.60;;;;;;5062506;28;20202;-75
2022/01/17 03:19:00;;;;;;;30.27;17.52;;;2.70;83.00;;;;;;5058057;28;20211;-75
2022/01/17 03:21:28;;;;;;;33.72;18.98;;;2.80;83.40;;;;;;5062174;28;20226;-74
2022/01/17 03:23:55;;;;;;;30.17;17.92;;;2.80;82.90;;;;;;5058393;28;20661;-75
2022/01/17 03:26:22;;;;;;;34.00;18.20;;;2.80;82.80;;;;;;5055595;28;20198;-74
2022/01/17 03:28:51;;;;;;;32.35;16.67;;;2.70;82.30;;;;;;5055362;28;20304;-74
2022/01/17 03:31:17;;;;;;;28.40;16.23;;;2.70;82.80;;;;;;5054847;28;20234;-75
2022/01/17 03:33:44;;;;;;;30.65;18.00;;;2.80;82.90;;;;;;5055631;28;20698;-75
2022/01/17 03:36:11;;;;;;;30.83;17.33;;;2.80;82.70;;;;;;5055247;28;20212;-74
2022/01/17 03:38:38;;;;;;;33.65;16.40;;;2.70;82.80;;;;;;5056596;28;20217;-74
2022/01/17 03:41:07;;;;;;;33.80;17.98;;;2.80;83.10;;;;;;5056225;28;20265;-76
2022/01/17 03:43:35;;;;;;;29.42;17.77;;;2.80;82.70;;;;;;5055452;28;20226;-75
2022/01/17 03:46:04;;;;;;;29.90;17.55;;;2.80;83.20;;;;;;5055419;28;20242;-74
2022/01/17 03:48:31;;;;;;;32.38;17.65;;;2.80;83.10;;;;;;5055479;28;20206;-74
2022/01/17 03:51:01;;;;;;;27.00;16.30;;;2.80;83.40;;;;;;5055484;28;20322;-75
2022/01/17 03:53:29;;;;;;;27.38;16.70;;;2.80;82.90;;;;;;5056458;28;20226;-75
2022/01/17 03:55:56;;;;;;;30.65;15.75;;;2.80;82.80;;;;;;5055209;28;20289;-75
2022/01/17 03:58:25;;;;;;;27.63;15.55;;;2.80;82.80;;;;;;5055347;28;20374;-74
2022/01/17 04:00:55;;;;;;;26.23;15.57;;;2.80;82.40;;;;;;5054666;28;20702;-74
2022/01/17 04:03:23;;;;;;;29.02;16.30;;;2.80;81.90;;;;;;5056212;28;20326;-74
2022/01/17 04:05:50;;;;;;;32.60;15.60;;;2.90;82.00;;;;;;5055156;28;20624;-75
2022/01/17 04:08:17;;;;;;;28.10;16.13;;;2.90;82.00;;;;;;5054896;28;20286;-73
2022/01/17 04:10:44;;;;;;;28.52;16.45;;;2.90;81.70;;;;;;5054197;28;20241;-75
2022/01/17 04:13:11;;;;;;;22.20;14.57;;;2.90;81.40;;;;;;5054935;28;20255;-74
2022/01/17 04:15:39;;;;;;;30.23;16.90;;;2.90;81.40;;;;;;5055568;28;20661;-75
2022/01/17 04:18:07;;;;;;;29.90;17.63;;;2.90;81.60;;;;;;5058025;28;20206;-77
2022/01/17 04:20:37;;;;;;;27.65;16.70;;;2.90;81.50;;;;;;5063804;28;20230;-75
2022/01/17 04:23:07;;;;;;;26.33;15.40;;;3.00;81.70;;;;;;5055223;28;20257;-76
2022/01/17 04:25:35;;;;;;;27.55;15.70;;;3.00;81.60;;;;;;5055136;28;20260;-76
2022/01/17 04:28:04;;;;;;;26.17;15.93;;;3.00;81.20;;;;;;5056709;28;20618;-75
2022/01/17 04:30:31;;;;;;;28.10;15.73;;;3.00;81.50;;;;;;5057747;28;20233;-75
2022/01/17 04:32:59;;;;;;;30.00;15.93;;;2.90;81.70;;;;;;5054923;28;20659;-76
2022/01/17 04:35:27;;;;;;;31.33;16.00;;;2.90;81.30;;;;;;5055088;28;20217;-78
2022/01/17 04:37:58;;;;;;;26.35;16.27;;;2.90;81.80;;;;;;5054827;28;20217;-76
2022/01/17 04:40:25;;;;;;;31.33;17.15;;;2.90;81.80;;;;;;5055976;28;20237;-76
2022/01/17 04:42:55;;;;;;;31.05;16.75;;;2.90;82.00;;;;;;5056451;28;20240;-75
2022/01/17 04:45:22;;;;;;;27.50;17.90;;;3.00;81.40;;;;;;5058487;28;20248;-76
2022/01/17 04:47:51;;;;;;;29.70;17.88;;;3.00;81.30;;;;;;5058649;28;20218;-75
2022/01/17 04:50:19;;;;;;;30.05;16.90;;;3.00;80.90;;;;;;5058351;28;20222;-75
2022/01/17 04:52:47;;;;;;;31.42;18.00;;;2.90;80.70;;;;;;5057695;28;20293;-76
2022/01/17 04:55:16;;;;;;;27.38;16.98;;;3.00;80.90;;;;;;5056974;28;20651;-76
2022/01/17 04:57:44;;;;;;;26.17;16.48;;;3.00;80.90;;;;;;5056531;28;20221;-77
2022/01/17 05:00:13;;;;;;;33.53;19.00;;;3.00;80.50;;;;;;5058423;28;20710;-76
2022/01/17 05:02:40;;;;;;;27.80;17.38;;;3.00;80.90;;;;;;5056723;28;20229;-75
2022/01/17 05:05:08;;;;;;;32.20;18.08;;;3.00;79.80;;;;;;5057930;28;20202;-75
2022/01/17 05:07:35;;;;;;;31.83;17.27;;;2.90;79.60;;;;;;5058934;28;20236;-76
2022/01/17 05:10:04;;;;;;;28.85;17.20;;;2.90;79.60;;;;;;5058685;28;20329;-77
2022/01/17 05:12:32;;;;;;;30.27;16.90;;;3.00;79.70;;;;;;5058105;28;20214;-74
2022/01/17 05:14:59;;;;;;;30.85;17.42;;;3.00;79.70;;;;;;5058280;28;20238;-74
2022/01/17 05:20:19;;;;;;;35.33;18.15;;;3.00;79.60;;;;;;5033402;28;20675;-75
2022/01/17 05:22:45;;;;;;;29.90;17.60;;;3.00;78.90;;;;;;5058087;28;20245;-76
2022/01/17 05:25:12;;;;;;;25.80;16.60;;;3.00;79.60;;;;;;5058050;28;20206;-76
2022/01/17 05:27:41;;;;;;;29.70;17.60;;;3.00;79.60;;;;;;5055466;28;20228;-76
2022/01/17 05:30:11;;;;;;;31.27;16.80;;;3.00;79.50;;;;;;5055738;28;20262;-76
2022/01/17 05:32:38;;;;;;;24.63;16.50;;;3.00;79.10;;;;;;5054044;28;20689;-76
2022/01/17 05:35:05;;;;;;;26.65;16.50;;;3.10;79.00;;;;;;5056198;28;20225;-75
2022/01/17 05:37:32;;;;;;;25.05;14.77;;;3.10;78.90;;;;;;5062724;28;20290;-74
2022/01/17 05:39:59;;;;;;;26.55;15.70;;;3.10;78.40;;;;;;5056988;28;20225;-75
2022/01/17 05:42:26;;;;;;;21.25;14.90;;;3.10;78.60;;;;;;5063354;28;20212;-77
2022/01/17 05:44:55;;;;;;;32.70;17.92;;;3.10;78.70;;;;;;5058126;28;20605;-75
2022/01/17 05:47:22;;;;;;;28.48;16.92;;;3.10;78.70;;;;;;5054407;28;20210;-76
2022/01/17 05:49:49;;;;;;;26.95;15.38;;;3.10;79.70;;;;;;5053012;28;20227;-76
2022/01/17 05:52:17;;;;;;;26.50;16.15;;;3.10;78.90;;;;;;5053275;28;20220;-76
2022/01/17 05:54:45;;;;;;;27.23;16.55;;;3.10;79.30;;;;;;5053327;28;20202;-75
2022/01/17 05:57:12;;;;;;;28.42;16.88;;;3.10;78.90;;;;;;5055779;28;20721;-75
2022/01/17 05:59:40;;;;;;;27.95;17.13;;;3.00;79.10;;;;;;5062394;28;20292;-75
2022/01/17 06:02:08;;;;;;;29.98;17.00;;;3.00;79.20;;;;;;5057800;28;20270;-77
2022/01/17 06:04:35;;;;;;;30.58;18.50;;;3.00;79.70;;;;;;5060535;28;20218;-74
2022/01/17 06:07:03;;;;;;;30.05;17.95;;;3.00;79.50;;;;;;5062625;28;20241;-75
2022/01/17 06:09:30;;;;;;;29.58;18.65;;;3.10;78.30;;;;;;5056679;28;20250;-76
2022/01/17 06:11:58;;;;;;;37.22;19.33;;;3.10;77.50;;;;;;5053943;28;20202;-75
2022/01/17 06:14:25;;;;;;;31.80;17.77;;;3.10;77.50;;;;;;5054780;28;20265;-76
2022/01/17 06:16:52;;;;;;;31.50;19.13;;;3.10;76.80;;;;;;5043953;28;20274;-75
2022/01/17 06:19:20;;;;;;;36.05;18.83;;;3.00;76.20;;;;;;5038551;28;20203;-78
2022/01/17 06:21:47;;;;;;;30.33;18.40;;;3.00;76.20;;;;;;5047082;28;20208;-76
2022/01/17 06:24:14;;;;;;;33.13;18.38;;;3.00;75.90;;;;;;5052238;28;20312;-75
2022/01/17 06:26:42;;;;;;;33.50;18.83;;;3.00;75.60;;;;;;5052042;28;20647;-76
2022/01/17 06:29:11;;;;;;;33.10;18.40;;;3.00;75.70;;;;;;5051854;28;20681;-75
2022/01/17 06:31:40;;;;;;;39.95;20.23;;;3.00;75.90;;;;;;5051771;28;20217;-76
2022/01/17 06:34:07;;;;;;;33.28;17.80;;;3.00;75.90;;;;;;5052480;28;20234;-75
2022/01/17 06:36:36;;;;;;;33.60;19.15;;;3.00;75.60;;;;;;5053333;28;20305;-77
2022/01/17 06:39:07;;;;;;;31.95;18.98;;;3.00;76.20;;;;;;5052129;28;20640;-76
2022/01/17 06:41:34;;;;;;;30.75;19.23;;;3.00;76.00;;;;;;5052262;28;20231;-78
2022/01/17 06:44:00;;;;;;;37.58;20.13;;;3.00;76.30;;;;;;5051789;28;20321;-76
2022/01/17 06:46:29;;;;;;;34.00;18.73;;;3.00;76.60;;;;;;5056620;28;20547;-75
2022/01/17 06:48:56;;;;;;;38.45;19.98;;;3.00;76.30;;;;;;5059282;28;20271;-76
2022/01/17 06:51:23;;;;;;;30.65;18.05;;;3.10;76.20;;;;;;5058893;28;20236;-75
2022/01/17 06:53:51;;;;;;;31.77;18.58;;;3.00;75.90;;;;;;5059228;28;20226;-73
2022/01/17 06:56:19;;;;;;;34.65;19.00;;;3.00;76.50;;;;;;5059547;28;20212;-74
2022/01/17 06:58:46;;;;;;;33.28;20.15;;;3.00;76.40;;;;;;5062612;28;20202;-74
2022/01/17 07:01:15;;;;;;;31.80;19.50;;;3.00;76.50;;;;;;5062135;28;20232;-74
2022/01/17 07:03:42;;;;;;;31.35;18.83;;;3.00;76.90;;;;;;5061300;28;20225;-77
2022/01/17 07:06:09;;;;;;;30.83;18.75;;;2.90;77.30;;;;;;5059972;28;20202;-77
2022/01/17 07:08:37;;;;;;;33.88;19.52;;;3.00;78.30;;;;;;5063587;28;20202;-76
2022/01/17 07:11:05;;;;;;;30.40;18.50;;;3.00;77.80;;;;;;5079480;28;20225;-76
2022/01/17 07:13:33;;;;;;;28.70;17.42;;;3.00;78.10;;;;;;5082880;28;20216;-75
2022/01/17 07:16:07;;;;;;;32.10;19.52;;;3.00;77.90;;;;;;5081827;28;20256;-74
2022/01/17 07:18:34;;;;;;;35.22;20.38;;;3.00;77.60;;;;;;5082742;28;20189;-75
2022/01/17 07:21:03;;;;;;;35.83;18.45;;;3.00;77.60;;;;;;5078778;28;20595;-75
2022/01/17 07:23:30;;;;;;;33.50;20.35;;;3.00;77.50;;;;;;5070607;28;20225;-76
2022/01/17 07:25:57;;;;;;;34.67;19.80;;;3.10;77.30;;;;;;5060156;28;20655;-77
2022/01/17 07:28:25;;;;;;;34.90;19.52;;;3.10;77.20;;;;;;5066427;28;20580;-76
2022/01/17 07:30:52;;;;;;;32.85;19.05;;;3.00;77.20;;;;;;5058238;28;21025;-76
2022/01/17 07:33:21;;;;;;;36.05;19.42;;;3.00;77.60;;;;;;5056222;28;20316;-77
2022/01/17 07:35:49;;;;;;;34.83;20.42;;;3.00;78.70;;;;;;5058897;28;20209;-77
2022/01/17 07:38:16;;;;;;;30.10;19.65;;;3.00;79.00;;;;;;5062918;28;20621;-77
2022/01/17 07:40:43;;;;;;;39.42;21.25;;;3.00;79.70;;;;;;5064953;28;20276;-76
2022/01/17 07:43:11;;;;;;;37.45;21.67;;;3.00;79.70;;;;;;5060622;28;20595;-76
2022/01/17 07:45:46;;;;;;;33.85;19.67;;;3.00;78.90;;;;;;5059636;28;20258;-76
2022/01/17 07:48:44;;;;;;;36.75;21.50;;;3.00;78.20;;;;;;5047730;28;20201;-76
2022/01/17 07:51:11;;;;;;;35.92;19.98;;;3.00;76.70;;;;;;5043276;28;20214;-75
2022/01/17 07:53:38;;;;;;;35.28;19.67;;;3.00;76.30;;;;;;5065581;28;20214;-75
2022/01/17 07:56:06;;;;;;;31.92;19.85;;;3.00;75.50;;;;;;5070158;28;20266;-76
2022/01/17 07:58:32;;;;;;;34.35;20.00;;;3.00;75.20;;;;;;5062141;28;20253;-76
2022/01/17 08:01:01;;;;;;;36.30;20.23;;;3.00;75.00;;;;;;5058135;28;20677;-77
2022/01/17 08:03:27;;;;;;;37.47;20.73;;;3.10;74.70;;;;;;5070437;28;20530;-77
2022/01/17 08:05:54;;;;;;;32.78;19.95;;;3.10;74.20;;;;;;5061874;28;20283;-77
2022/01/17 08:08:21;;;;;;;31.83;19.35;;;3.10;73.70;;;;;;5057310;28;20234;-77
2022/01/17 08:10:48;;;;;;;34.92;19.65;;;3.10;73.60;;;;;;5055821;28;20268;-77
2022/01/17 08:13:15;;;;;;;35.17;20.42;;;3.10;73.80;;;;;;5064109;28;20221;-77
2022/01/17 08:15:44;;;;;;;34.10;20.50;;;3.10;73.60;;;;;;5069623;28;20635;-76
2022/01/17 08:18:13;;;;;;;33.92;20.55;;;3.10;73.40;;;;;;5062797;28;20629;-76
2022/01/17 08:20:40;;;;;;;36.55;20.98;;;3.10;73.70;;;;;;5062711;28;20222;-77
2022/01/17 08:23:07;;;;;;;32.15;20.63;;;3.10;73.70;;;;;;5062943;28;20296;-77
2022/01/17 08:25:34;;;;;;;37.55;21.23;;;3.10;74.20;;;;;;5059423;28;20317;-76
2022/01/17 08:28:01;;;;;;;36.80;20.15;;;3.20;74.10;;;;;;5063028;28;20202;-77
2022/01/17 08:30:29;;;;;;;37.03;20.85;;;3.30;74.30;;;;;;5057208;28;20230;-76
2022/01/17 08:32:56;;;;;;;31.50;19.27;;;3.20;73.80;;;;;;5056097;28;20211;-77
2022/01/17 08:35:25;;;;;;;38.70;21.50;;;3.20;74.00;;;;;;5058490;28;20213;-77
2022/01/17 08:37:52;;;;;;;35.67;20.40;;;3.20;73.80;;;;;;5054611;28;20260;-76
2022/01/17 08:40:19;;;;;;;37.67;22.23;;;3.10;74.60;;;;;;5061563;28;20313;-76
2022/01/17 08:42:46;;;;;;;36.17;20.17;;;3.10;75.40;;;;;;5060968;28;20586;-76
2022/01/17 08:45:16;;;;;;;36.50;22.40;;;3.20;76.10;;;;;;5055179;28;20309;-75
2022/01/17 08:47:46;;;;;;;35.20;21.13;;;3.10;75.60;;;;;;5053773;28;20236;-76
2022/01/17 08:50:13;;;;;;;46.70;20.50;;;3.20;76.20;;;;;;5052372;28;20309;-76
2022/01/17 08:52:41;;;;;;;32.75;20.27;;;3.20;75.90;;;;;;5054126;28;20294;-76
2022/01/17 08:55:09;;;;;;;38.42;21.63;;;3.20;75.70;;;;;;5062789;28;20199;-77
2022/01/17 08:57:36;;;;;;;35.30;20.63;;;3.20;76.50;;;;;;5054633;28;20249;-76
2022/01/17 09:00:05;;;;;;;34.97;20.73;;;3.30;77.10;;;;;;5052096;28;20238;-75
2022/01/17 09:02:32;;;;;;;33.60;19.70;;;3.30;76.60;;;;;;5052504;28;20839;-76
2022/01/17 09:04:58;;;;;;;35.00;20.00;;;3.30;77.20;;;;;;5052990;28;20659;-75
2022/01/17 09:07:25;;;;;;;36.42;20.25;;;3.20;77.60;;;;;;5054171;28;20216;-75
2022/01/17 09:09:54;;;;;;;34.83;21.92;;;3.20;78.00;;;;;;5056844;28;20233;-77
2022/01/17 09:12:21;;;;;;;35.83;20.33;;;3.20;78.80;;;;;;5057916;28;20279;-76
2022/01/17 09:14:48;;;;;;;42.20;21.70;;;3.20;79.90;;;;;;5053587;28;20234;-77
2022/01/17 09:17:15;;;;;;;29.42;19.73;;;3.20;79.90;;;;;;5033187;28;20343;-77
2022/01/17 09:19:44;;;;;;;36.67;21.30;;;3.30;80.00;;;;;;5034158;28;20226;-77
2022/01/17 09:22:11;;;;;;;37.72;19.90;;;3.30;80.00;;;;;;5039181;28;20195;-75
2022/01/17 09:24:39;;;;;;;31.23;17.30;;;3.40;80.10;;;;;;5042664;28;20219;-75
2022/01/17 09:27:10;;;;;;;29.23;18.98;;;3.50;80.10;;;;;;5051152;28;20301;-74
2022/01/17 09:29:37;;;;;;;35.58;20.10;;;3.50;78.70;;;;;;5052721;28;20283;-77
2022/01/17 09:32:05;;;;;;;38.33;21.00;;;3.60;78.60;;;;;;5055102;28;20202;-77
2022/01/17 09:34:32;;;;;;;31.70;19.13;;;3.60;78.30;;;;;;5048119;28;20271;-76
2022/01/17 09:36:59;;;;;;;31.77;20.35;;;3.60;77.90;;;;;;5033927;28;20207;-77
2022/01/17 09:39:26;;;;;;;35.92;21.42;;;3.60;77.30;;;;;;5050741;28;20626;-77
2022/01/17 09:41:52;;;;;;;36.03;20.88;;;3.40;78.00;;;;;;5056214;28;20674;-76
2022/01/17 09:44:21;;;;;;;39.08;20.27;;;3.40;79.10;;;;;;5059599;28;20317;-77
2022/01/17 09:46:52;;;;;;;38.17;20.75;;;3.30;80.00;;;;;;5055754;28;20252;-77
2022/01/17 09:49:24;;;;;;;30.70;19.05;;;3.40;80.00;;;;;;5037238;28;20211;-76
2022/01/17 09:54:37;;;;;;;33.83;18.95;;;3.50;80.20;;;;;;5049148;28;20191;-77
2022/01/17 09:57:08;;;;;;;29.27;19.38;;;3.50;80.10;;;;;;5062551;28;20266;-77
2022/01/17 09:59:39;;;;;;;31.67;18.40;;;3.60;80.20;;;;;;5055895;28;20682;-78
2022/01/17 10:02:07;;;;;;;34.92;20.50;;;3.60;80.20;;;;;;5060175;28;20270;-77
2022/01/17 10:04:36;;;;;;;33.47;20.52;;;3.50;80.10;;;;;;5066037;28;20510;-76
2022/01/17 10:07:05;;;;;;;37.15;18.13;;;3.60;80.20;;;;;;5068224;28;20203;-77
2022/01/17 10:09:33;;;;;;;32.47;20.00;;;3.50;80.10;;;;;;5060721;28;20230;-76
2022/01/17 10:12:03;;;;;;;33.17;19.70;;;3.50;80.70;;;;;;5059573;28;20222;-78
2022/01/17 10:14:36;;;;;;;33.25;20.42;;;3.50;81.50;;;;;;5062361;28;20206;-77
2022/01/17 10:17:05;;;;;;;33.47;19.27;;;3.50;82.40;;;;;;5059402;28;20202;-77
2022/01/17 10:19:32;;;;;;;33.25;19.15;;;3.60;82.90;;;;;;5059689;28;20718;-77
2022/01/17 10:22:01;;;;;;;36.50;21.50;;;3.60;82.80;;;;;;5066322;28;20198;-75
2022/01/17 10:24:36;;;;;;;33.03;20.38;;;3.60;82.60;;;;;;5063156;28;20206;-75
2022/01/17 10:27:24;;;;;;;33.80;19.02;;;3.70;82.50;;;;;;5064721;28;20217;-74
2022/01/17 10:35:22;;;;;;;31.65;19.88;;;3.70;83.20;;;;;;5056081;28;20601;-77
2022/01/17 10:38:04;;;;;;;37.92;21.48;;;3.70;82.50;;;;;;5060088;28;20210;-76
2022/01/17 10:40:33;;;;;;;33.03;19.85;;;3.70;82.70;;;;;;5071612;28;20289;-75
2022/01/17 10:43:01;;;;;;;32.25;19.13;;;3.70;82.70;;;;;;5074211;28;20205;-75
2022/01/17 10:45:33;;;;;;;37.08;20.48;;;3.70;82.40;;;;;;5074785;28;20248;-73
2022/01/17 10:48:03;;;;;;;31.67;18.92;;;3.70;82.80;;;;;;5069608;28;20181;-75
2022/01/17 10:50:32;;;;;;;31.33;19.58;;;3.80;82.90;;;;;;5051361;28;20299;-75
2022/01/17 10:53:01;;;;;;;35.90;19.02;;;3.80;82.10;;;;;;5051121;28;20199;-77
2022/01/17 10:55:30;;;;;;;33.78;20.30;;;3.80;81.90;;;;;;5060960;28;20206;-75
2022/01/17 10:58:01;;;;;;;31.05;19.73;;;3.80;82.50;;;;;;5049345;28;20257;-75
2022/01/17 11:00:30;;;;;;;33.55;19.60;;;3.80;82.50;;;;;;5053771;28;20248;-77
2022/01/17 11:02:59;;;;;;;37.25;20.70;;;3.90;81.80;;;;;;5052201;28;20208;-76
2022/01/17 11:05:28;;;;;;;39.65;21.52;;;3.90;81.30;;;;;;5051890;28;20222;-76
2022/01/17 11:07:58;;;;;;;33.05;20.08;;;3.90;81.00;;;;;;5052196;28;20198;-77
2022/01/17 11:10:27;;;;;;;34.00;19.70;;;4.00;80.70;;;;;;5052295;28;20242;-76
2022/01/17 11:12:58;;;;;;;31.10;20.02;;;4.00;80.60;;;;;;5051103;28;20225;-77
2022/01/17 11:15:28;;;;;;;34.13;20.27;;;3.90;80.90;;;;;;5052656;28;20671;-76
2022/01/17 11:17:57;;;;;;;34.33;20.05;;;4.00;81.50;;;;;;5053665;28;20285;-77
2022/01/17 11:20:32;;;;;;;37.40;21.35;;;4.00;81.30;;;;;;5052111;28;20226;-76
2022/01/17 11:23:01;;;;;;;35.30;19.23;;;3.90;80.90;;;;;;5051837;28;20206;-76
2022/01/17 11:25:33;;;;;;;33.58;20.40;;;4.00;82.60;;;;;;5059508;28;20638;-75
2022/01/17 11:28:01;;;;;;;35.15;19.42;;;4.10;82.20;;;;;;5062061;28;20221;-76
2022/01/17 11:30:28;;;;;;;32.03;19.45;;;4.10;81.90;;;;;;5063159;28;20230;-77
2022/01/17 11:32:56;;;;;;;37.38;21.98;;;4.10;81.40;;;;;;5053918;28;20202;-78
2022/01/17 11:35:24;;;;;;;31.98;20.42;;;4.10;80.90;;;;;;5059014;28;20309;-76
2022/01/17 11:37:56;;;;;;;29.35;18.08;;;4.10;81.10;;;;;;5058689;28;20199;-76
2022/01/17 11:40:28;;;;;;;32.35;20.38;;;4.10;80.70;;;;;;5057144;28;20307;-75
2022/01/17 11:42:54;;;;;;;34.90;19.92;;;4.10;80.80;;;;;;5058758;28;20203;-76
2022/01/17 11:45:39;;;;;;;30.92;19.83;;;4.10;81.30;;;;;;5058922;28;20226;-77
2022/01/17 11:48:18;;;;;;;35.17;20.13;;;4.20;81.90;;;;;;5058048;28;20609;-76
2022/01/17 11:50:48;;;;;;;36.08;20.50;;;4.20;81.60;;;;;;5056924;28;20256;-77
2022/01/17 11:53:39;;;;;;;33.88;20.00;;;4.10;80.70;;;;;;5056456;28;20232;-76
2022/01/17 11:56:07;;;;;;;32.10;18.27;;;4.10;82.10;;;;;;5055515;28;20865;-77
2022/01/17 11:58:40;;;;;;;31.67;19.35;;;4.10;82.70;;;;;;5047266;28;20207;-78
2022/01/17 12:01:12;;;;;;;35.70;19.08;;;4.10;82.80;;;;;;5058141;28;20230;-77
2022/01/17 12:03:42;;;;;;;33.63;19.73;;;4.10;83.10;;;;;;5060351;28;20702;-77
2022/01/17 12:06:29;;;;;;;31.95;19.42;;;4.20;82.80;;;;;;5067455;28;20250;-77
2022/01/17 12:09:20;;;;;;;32.88;19.23;;;4.30;82.60;;;;;;5065906;28;20210;-75
2022/01/17 12:11:49;;;;;;;39.13;20.95;;;4.20;82.10;;;;;;5060923;28;20205;-75
2022/01/17 12:14:27;;;;;;;33.15;19.65;;;4.30;83.00;;;;;;5062965;28;20704;-75
2022/01/17 12:16:55;;;;;;;31.25;19.40;;;4.20;82.60;;;;;;5064903;28;20309;-76
2022/01/17 12:19:22;;;;;;;28.90;18.15;;;4.30;83.20;;;;;;5058732;28;20308;-75
2022/01/17 12:21:54;;;;;;;31.88;18.30;;;4.30;82.40;;;;;;5058600;28;20301;-76
2022/01/17 12:24:32;;;;;;;33.25;17.02;;;4.40;81.60;;;;;;5059221;28;20207;-77
2022/01/17 12:27:08;;;;;;;28.63;17.15;;;4.50;81.00;;;;;;5050490;28;20222;-77
2022/01/17 12:29:38;;;;;;;29.15;17.85;;;4.50;81.00;;;;;;5063462;28;20222;-75
2022/01/17 12:32:06;;;;;;;31.67;16.83;;;4.50;80.90;;;;;;5061738;28;20297;-76
2022/01/17 12:34:42;;;;;;;29.48;17.42;;;4.50;80.40;;;;;;5059824;28;20283;-76
2022/01/17 12:37:33;;;;;;;30.75;18.42;;;4.50;80.60;;;;;;5063860;28;20194;-76
2022/01/17 12:40:15;;;;;;;30.73;18.38;;;4.40;80.70;;;;;;5070865;28;20222;-76
2022/01/17 12:42:53;;;;;;;29.52;18.35;;;4.50;81.00;;;;;;5062716;28;20274;-75
2022/01/17 12:45:22;;;;;;;32.25;18.02;;;4.50;81.40;;;;;;5056374;28;20246;-76
2022/01/17 12:47:49;;;;;;;33.53;19.65;;;4.40;80.90;;;;;;5075298;28;20199;-76
2022/01/17 12:50:16;;;;;;;28.98;16.73;;;4.60;81.10;;;;;;5076215;28;20257;-75
2022/01/17 12:52:44;;;;;;;26.45;17.35;;;4.60;80.10;;;;;;5072545;28;20710;-78
2022/01/17 12:55:13;;;;;;;27.75;16.40;;;4.50;79.90;;;;;;5057212;28;20210;-75
2022/01/17 12:57:42;;;;;;;24.73;16.60;;;4.60;79.70;;;;;;5056415;28;20208;-76
2022/01/17 13:00:16;;;;;;;27.08;16.73;;;4.60;79.80;;;;;;5059595;28;20234;-76